Time;durP1;ratioP1;P1;durP2;ratioP2;P2;SDS_P1;SDS_P2;PMS_P1;PMS_P2;Temp;Humidity;BMP_temperature;BMP_pressure;BME280_temperature;BME280_humidity;BME280_pressure;Samples;Min_cycle;Max_cycle;Signal;HPM_P1;HPM_P2
2024/01/20 00:00:59;;;;;;;22.47;14.50;;;12.70;82.90;;;;;;4594527;19;20723;-74
2024/01/20 00:02:52;;;;;;;23.33;14.67;;;12.70;82.80;;;;;;4594010;19;20454;-74
2024/01/20 00:04:28;;;;;;;28.73;16.10;;;12.80;82.80;;;;;;4594226;19;20382;-74
2024/01/20 00:06:01;;;;;;;25.20;15.30;;;12.70;82.70;;;;;;4591873;19;20564;-74
2024/01/20 00:07:36;;;;;;;26.30;17.03;;;12.70;82.70;;;;;;4593793;19;20507;-74
2024/01/20 00:09:11;;;;;;;22.57;14.10;;;12.70;82.60;;;;;;4594103;19;20369;-74
2024/01/20 00:10:45;;;;;;;25.37;14.80;;;12.70;82.40;;;;;;4593001;19;20781;-74
2024/01/20 00:12:19;;;;;;;22.43;14.47;;;12.80;82.50;;;;;;4594006;19;20702;-74
2024/01/20 00:13:55;;;;;;;23.43;14.67;;;12.80;82.50;;;;;;4593540;19;20397;-74
2024/01/20 00:15:28;;;;;;;24.90;15.57;;;12.80;82.50;;;;;;4593293;19;20471;-74
2024/01/20 00:17:02;;;;;;;23.23;14.63;;;12.70;82.50;;;;;;4593885;19;20740;-74
2024/01/20 00:18:37;;;;;;;23.67;13.23;;;12.70;82.40;;;;;;4594341;19;20433;-74
2024/01/20 00:20:12;;;;;;;24.83;15.87;;;12.70;82.40;;;;;;4593897;19;20405;-74
2024/01/20 00:21:47;;;;;;;21.67;14.27;;;12.80;82.50;;;;;;4593763;19;20420;-74
2024/01/20 00:23:22;;;;;;;24.20;13.93;;;12.80;82.40;;;;;;4594119;19;20413;-74
2024/01/20 00:24:59;;;;;;;24.50;14.93;;;12.70;82.40;;;;;;4593989;19;20393;-74
2024/01/20 00:26:33;;;;;;;28.87;15.73;;;12.80;82.50;;;;;;4592471;19;21065;-74
2024/01/20 00:28:08;;;;;;;22.03;14.37;;;12.70;82.50;;;;;;4593639;19;20540;-74
2024/01/20 00:29:42;;;;;;;21.37;14.63;;;12.70;82.40;;;;;;4593259;19;20412;-74
2024/01/20 00:31:16;;;;;;;17.17;12.17;;;12.70;82.40;;;;;;4592236;19;20404;-74
2024/01/20 00:32:52;;;;;;;17.20;11.73;;;12.70;82.40;;;;;;4593341;19;20365;-74
2024/01/20 00:34:27;;;;;;;23.13;13.10;;;12.70;82.30;;;;;;4593473;19;20448;-74
2024/01/20 00:36:02;;;;;;;25.67;15.23;;;12.70;82.40;;;;;;4591334;19;21021;-74
2024/01/20 00:37:38;;;;;;;17.37;12.00;;;12.70;82.30;;;;;;4593022;19;20389;-74
2024/01/20 00:39:14;;;;;;;21.07;12.57;;;12.70;82.30;;;;;;4592341;19;20969;-74
2024/01/20 00:40:48;;;;;;;17.53;12.17;;;12.70;82.30;;;;;;4593366;19;20949;-74
2024/01/20 00:42:24;;;;;;;19.07;13.93;;;12.70;82.40;;;;;;4593393;19;20484;-74
2024/01/20 00:43:58;;;;;;;18.47;11.10;;;12.70;82.40;;;;;;4593298;19;20416;-74
2024/01/20 00:45:33;;;;;;;21.70;12.77;;;12.70;82.30;;;;;;4592425;19;20970;-74
2024/01/20 00:47:10;;;;;;;15.33;11.07;;;12.70;82.30;;;;;;4592017;19;20953;-74
2024/01/20 00:48:44;;;;;;;16.63;10.93;;;12.70;82.20;;;;;;4593522;19;20519;-74
2024/01/20 00:50:18;;;;;;;16.90;10.33;;;12.70;82.20;;;;;;4592381;19;20416;-74
2024/01/20 00:51:53;;;;;;;17.87;10.40;;;12.70;82.30;;;;;;4593213;19;20428;-74
2024/01/20 00:53:27;;;;;;;20.37;12.10;;;12.70;82.30;;;;;;4593200;19;20002;-74
2024/01/20 00:55:01;;;;;;;18.43;12.10;;;12.70;82.30;;;;;;4593092;19;20951;-74
2024/01/20 00:56:36;;;;;;;14.33;10.53;;;12.70;82.20;;;;;;4593359;19;20362;-74
2024/01/20 00:58:10;;;;;;;18.57;10.83;;;12.60;82.20;;;;;;4593077;19;20393;-74
2024/01/20 00:59:47;;;;;;;14.13;10.43;;;12.60;82.30;;;;;;4593138;19;20357;-74
2024/01/20 01:14:55;;;;;;;18.40;11.17;;;12.60;82.70;;;;;;4564839;19;20558;-73
2024/01/20 01:16:30;;;;;;;16.43;10.37;;;12.50;82.30;;;;;;4592060;19;20432;-73
2024/01/20 01:18:05;;;;;;;13.27;10.20;;;12.50;82.30;;;;;;4592580;19;20426;-73
2024/01/20 01:19:39;;;;;;;17.10;11.63;;;12.50;82.30;;;;;;4592232;19;20500;-73
2024/01/20 01:21:14;;;;;;;16.23;10.60;;;12.40;82.90;;;;;;4592576;19;20400;-73
2024/01/20 01:22:51;;;;;;;15.63;10.83;;;12.40;82.70;;;;;;4592526;19;20718;-73
2024/01/20 01:24:24;;;;;;;17.13;11.07;;;12.40;83.10;;;;;;4592511;19;20365;-73
2024/01/20 01:26:00;;;;;;;15.77;10.10;;;12.50;83.20;;;;;;4591347;19;20709;-73
2024/01/20 01:27:34;;;;;;;16.57;11.20;;;12.50;83.40;;;;;;4592362;19;20389;-73
2024/01/20 01:29:08;;;;;;;17.73;11.60;;;12.50;83.30;;;;;;4591346;19;20397;-73
2024/01/20 01:30:44;;;;;;;16.33;11.63;;;12.50;83.40;;;;;;4591150;19;20393;-73
2024/01/20 01:32:19;;;;;;;14.30;10.50;;;12.50;83.40;;;;;;4592344;19;20728;-73
2024/01/20 01:33:52;;;;;;;16.50;11.50;;;12.50;83.30;;;;;;4590969;19;20412;-73
2024/01/20 01:35:29;;;;;;;15.43;11.03;;;12.60;83.30;;;;;;4591453;19;20503;-73
2024/01/20 01:37:02;;;;;;;14.40;10.90;;;12.60;83.20;;;;;;4592244;19;20433;-73
2024/01/20 01:38:37;;;;;;;14.80;11.87;;;12.60;83.30;;;;;;4592198;19;20396;-73
2024/01/20 01:40:13;;;;;;;16.33;12.03;;;12.60;83.20;;;;;;4592451;19;20508;-73
2024/01/20 01:41:47;;;;;;;15.90;11.67;;;12.60;83.30;;;;;;4592165;19;20400;-73
2024/01/20 01:43:21;;;;;;;16.83;10.47;;;12.60;83.30;;;;;;4592037;19;20404;-73
2024/01/20 01:44:56;;;;;;;13.77;10.43;;;12.60;83.10;;;;;;4590738;19;20429;-73
2024/01/20 01:46:34;;;;;;;14.90;10.67;;;12.60;83.50;;;;;;4591536;19;20405;-73
2024/01/20 01:48:09;;;;;;;17.77;12.13;;;12.60;83.20;;;;;;4592024;19;20423;-73
2024/01/20 01:49:45;;;;;;;14.37;10.70;;;12.60;83.20;;;;;;4590443;19;20377;-73
2024/01/20 01:51:19;;;;;;;16.63;11.57;;;12.50;83.20;;;;;;4591825;19;20443;-73
2024/01/20 01:52:54;;;;;;;15.80;11.63;;;12.60;83.20;;;;;;4591801;19;20421;-73
2024/01/20 01:54:30;;;;;;;17.50;11.73;;;12.50;83.20;;;;;;4590003;19;20393;-73
2024/01/20 01:56:04;;;;;;;17.67;10.30;;;12.60;83.20;;;;;;4591597;19;20508;-73
2024/01/20 01:57:39;;;;;;;19.57;13.47;;;12.50;83.20;;;;;;4590750;19;20408;-73
2024/01/20 01:59:16;;;;;;;18.20;11.60;;;12.50;83.00;;;;;;4593354;19;20412;-74
2024/01/20 02:00:50;;;;;;;15.10;10.93;;;12.60;83.00;;;;;;4595109;19;20445;-73
2024/01/20 02:02:24;;;;;;;13.50;10.03;;;12.50;83.10;;;;;;4595617;19;20989;-73
2024/01/20 02:04:00;;;;;;;17.03;10.77;;;12.50;82.90;;;;;;4594059;19;20421;-73
2024/01/20 02:05:34;;;;;;;17.30;12.27;;;12.50;82.90;;;;;;4593028;19;21026;-73
2024/01/20 02:07:08;;;;;;;16.20;10.73;;;12.50;83.00;;;;;;4596262;19;20927;-73
2024/01/20 02:08:44;;;;;;;15.30;11.20;;;12.50;82.90;;;;;;4596252;19;20903;-73
2024/01/20 02:10:19;;;;;;;17.30;11.43;;;12.50;82.70;;;;;;4595309;19;20532;-73
2024/01/20 02:11:53;;;;;;;19.37;11.30;;;12.50;82.70;;;;;;4594864;19;20453;-73
2024/01/20 02:13:29;;;;;;;16.57;11.63;;;12.50;82.90;;;;;;4595363;19;20500;-73
2024/01/20 02:15:04;;;;;;;18.73;11.73;;;12.50;82.80;;;;;;4594824;19;20491;-73
2024/01/20 02:16:38;;;;;;;17.97;11.27;;;12.50;82.70;;;;;;4595018;19;20515;-73
2024/01/20 02:18:14;;;;;;;17.23;11.37;;;12.50;82.60;;;;;;4596354;19;20409;-73
2024/01/20 02:19:48;;;;;;;18.87;12.60;;;12.50;82.60;;;;;;4596190;19;20409;-73
2024/01/20 02:21:24;;;;;;;13.90;11.30;;;12.50;82.60;;;;;;4594634;19;20465;-73
2024/01/20 02:23:00;;;;;;;13.73;9.90;;;12.50;82.70;;;;;;4595963;19;20405;-73
2024/01/20 02:24:35;;;;;;;15.60;10.90;;;12.50;82.60;;;;;;4593610;19;20441;-73
2024/01/20 02:26:11;;;;;;;14.97;11.03;;;12.50;82.60;;;;;;4594798;19;20421;-73
2024/01/20 02:27:46;;;;;;;17.07;11.67;;;12.50;82.60;;;;;;4595864;19;20485;-73
2024/01/20 02:29:20;;;;;;;16.97;11.13;;;12.50;82.50;;;;;;4595744;19;20439;-73
2024/01/20 02:30:54;;;;;;;16.50;11.57;;;12.40;82.60;;;;;;4594280;19;20935;-73
2024/01/20 02:32:31;;;;;;;20.53;11.83;;;12.50;83.00;;;;;;4594685;19;20365;-73
2024/01/20 02:34:05;;;;;;;19.30;13.47;;;12.40;83.30;;;;;;4596007;19;20670;-73
2024/01/20 02:35:39;;;;;;;18.10;11.10;;;12.50;83.50;;;;;;4594149;19;20449;-73
2024/01/20 02:37:14;;;;;;;19.17;10.97;;;12.50;83.50;;;;;;4595920;19;20404;-73
2024/01/20 02:38:48;;;;;;;17.60;12.20;;;12.50;83.20;;;;;;4595862;19;20389;-73
2024/01/20 02:40:22;;;;;;;16.50;11.17;;;12.50;82.90;;;;;;4595852;19;20397;-73
2024/01/20 02:41:57;;;;;;;18.00;12.03;;;12.50;82.90;;;;;;4596073;19;20437;-73
2024/01/20 02:43:32;;;;;;;16.87;11.97;;;12.50;82.80;;;;;;4595804;19;20381;-73
2024/01/20 02:45:06;;;;;;;17.30;12.23;;;12.50;82.70;;;;;;4594664;19;20457;-73
2024/01/20 02:46:41;;;;;;;16.27;11.43;;;12.50;82.60;;;;;;4594421;19;20366;-73
2024/01/20 02:48:16;;;;;;;17.93;12.33;;;12.50;82.70;;;;;;4595636;19;20495;-73
2024/01/20 02:49:50;;;;;;;14.47;10.43;;;12.50;82.60;;;;;;4595143;19;20459;-73
2024/01/20 02:51:25;;;;;;;15.47;10.90;;;12.50;82.50;;;;;;4595673;19;20392;-73
2024/01/20 02:53:00;;;;;;;15.93;11.53;;;12.50;82.40;;;;;;4595405;19;20717;-73
2024/01/20 02:54:34;;;;;;;16.67;11.93;;;12.50;82.40;;;;;;4594646;19;20497;-73
2024/01/20 02:56:09;;;;;;;17.23;11.90;;;12.50;82.30;;;;;;4595010;19;20765;-73
2024/01/20 02:57:43;;;;;;;15.20;10.97;;;12.60;82.40;;;;;;4594633;19;20996;-73
2024/01/20 02:59:17;;;;;;;15.30;11.13;;;12.60;82.30;;;;;;4595449;19;20491;-73
2024/01/20 03:00:52;;;;;;;17.93;12.43;;;12.50;82.20;;;;;;4595335;19;20400;-73
2024/01/20 03:02:26;;;;;;;16.00;11.27;;;12.50;83.00;;;;;;4595629;19;20423;-73
2024/01/20 03:04:01;;;;;;;16.00;11.47;;;12.50;82.60;;;;;;4595638;19;20480;-73
2024/01/20 03:05:37;;;;;;;17.00;11.47;;;12.50;82.70;;;;;;4594052;19;21022;-73
2024/01/20 03:07:11;;;;;;;16.70;11.97;;;12.50;82.90;;;;;;4595333;19;20389;-73
2024/01/20 03:08:44;;;;;;;17.50;11.53;;;12.50;83.00;;;;;;4593959;19;20401;-73
2024/01/20 03:10:20;;;;;;;17.80;12.13;;;12.50;83.10;;;;;;4593125;19;20385;-73
2024/01/20 03:11:54;;;;;;;16.70;12.63;;;12.50;83.20;;;;;;4595241;19;20389;-74
2024/01/20 03:13:27;;;;;;;17.23;11.90;;;12.50;83.00;;;;;;4595128;19;20475;-74
2024/01/20 03:15:03;;;;;;;14.77;10.20;;;12.60;83.00;;;;;;4593863;19;20556;-73
2024/01/20 03:16:37;;;;;;;14.67;11.13;;;12.50;82.90;;;;;;4593834;19;20393;-73
2024/01/20 03:18:11;;;;;;;15.70;11.50;;;12.60;83.00;;;;;;4593797;19;20397;-73
2024/01/20 03:19:47;;;;;;;16.03;10.47;;;12.50;83.00;;;;;;4593724;19;20495;-73
2024/01/20 03:21:21;;;;;;;17.13;10.80;;;12.50;83.10;;;;;;4594745;19;20491;-73
2024/01/20 03:22:56;;;;;;;13.67;10.83;;;12.50;83.20;;;;;;4595071;19;20405;-73
2024/01/20 03:24:31;;;;;;;15.37;10.67;;;12.60;83.40;;;;;;4595078;19;20499;-73
2024/01/20 03:26:08;;;;;;;16.53;12.47;;;12.60;83.40;;;;;;4594927;19;20405;-73
2024/01/20 03:27:42;;;;;;;17.00;11.93;;;12.60;83.40;;;;;;4593811;19;20388;-73
2024/01/20 03:29:19;;;;;;;17.73;12.30;;;12.60;83.50;;;;;;4594969;19;20396;-73
2024/01/20 03:30:53;;;;;;;14.97;10.77;;;12.60;83.60;;;;;;4593666;19;20981;-73
2024/01/20 03:32:27;;;;;;;17.63;11.83;;;12.60;83.50;;;;;;4594846;19;20388;-73
2024/01/20 03:34:03;;;;;;;15.60;11.10;;;12.60;83.60;;;;;;4594888;19;20389;-73
2024/01/20 03:35:38;;;;;;;17.63;12.10;;;12.60;83.70;;;;;;4593200;19;20475;-73
2024/01/20 03:37:12;;;;;;;16.80;12.57;;;12.60;83.90;;;;;;4594764;19;20405;-73
2024/01/20 03:38:47;;;;;;;14.50;10.97;;;12.60;83.80;;;;;;4594765;19;20461;-73
2024/01/20 03:40:21;;;;;;;19.27;13.83;;;12.60;83.90;;;;;;4593607;19;20392;-73
2024/01/20 03:41:55;;;;;;;16.37;11.90;;;12.50;84.00;;;;;;4594306;19;20416;-73
2024/01/20 03:43:32;;;;;;;16.63;10.97;;;12.50;84.00;;;;;;4594670;19;20378;-73
2024/01/20 03:45:08;;;;;;;16.53;10.90;;;12.60;84.00;;;;;;4593905;19;20459;-73
2024/01/20 03:46:42;;;;;;;16.57;10.80;;;12.60;84.10;;;;;;4594517;19;20442;-73
2024/01/20 03:48:18;;;;;;;16.07;10.87;;;12.60;84.10;;;;;;4593196;19;20373;-73
2024/01/20 03:49:52;;;;;;;14.37;10.37;;;12.60;84.10;;;;;;4593976;19;20393;-74
2024/01/20 03:51:26;;;;;;;15.33;10.63;;;12.60;84.20;;;;;;4594682;19;20887;-73
2024/01/20 03:53:03;;;;;;;15.60;11.43;;;12.50;84.20;;;;;;4594487;19;20377;-72
2024/01/20 03:54:38;;;;;;;15.43;9.57;;;12.50;84.10;;;;;;4593911;19;20425;-73
2024/01/20 03:56:12;;;;;;;15.40;10.30;;;12.60;84.10;;;;;;4594373;19;20389;-73
2024/01/20 03:57:47;;;;;;;17.73;10.80;;;12.50;83.90;;;;;;4594565;19;20388;-73
2024/01/20 03:59:21;;;;;;;16.63;10.53;;;12.60;83.90;;;;;;4594212;19;20444;-73
2024/01/20 04:00:55;;;;;;;19.70;11.70;;;12.50;83.90;;;;;;4594167;19;20827;-73
2024/01/20 04:02:30;;;;;;;18.93;12.50;;;12.50;83.90;;;;;;4594198;19;20408;-73
2024/01/20 04:04:05;;;;;;;12.77;9.47;;;12.50;84.00;;;;;;4594423;19;20720;-73
2024/01/20 04:05:39;;;;;;;15.33;10.60;;;12.50;83.90;;;;;;4592938;19;20477;-73
2024/01/20 04:07:15;;;;;;;15.67;11.47;;;12.50;83.80;;;;;;4594141;19;20385;-73
2024/01/20 04:08:49;;;;;;;14.90;10.00;;;12.50;83.80;;;;;;4594041;19;20389;-73
2024/01/20 04:10:24;;;;;;;17.73;10.70;;;12.50;83.60;;;;;;4593190;19;20417;-73
2024/01/20 04:12:00;;;;;;;16.57;11.00;;;12.50;83.60;;;;;;4593994;19;20430;-73
2024/01/20 04:13:34;;;;;;;18.00;10.93;;;12.50;83.60;;;;;;4594160;19;20484;-73
2024/01/20 04:15:08;;;;;;;14.27;10.50;;;12.40;83.40;;;;;;4592924;19;20503;-73
2024/01/20 04:16:44;;;;;;;16.17;10.33;;;12.40;83.50;;;;;;4592613;19;20373;-73
2024/01/20 04:18:18;;;;;;;15.63;9.67;;;12.40;83.40;;;;;;4593495;19;20431;-73
2024/01/20 04:19:52;;;;;;;14.97;10.37;;;12.40;83.30;;;;;;4593795;19;20444;-73
2024/01/20 04:21:28;;;;;;;15.30;10.37;;;12.40;83.30;;;;;;4592423;19;20369;-73
2024/01/20 04:23:02;;;;;;;15.67;10.57;;;12.40;83.30;;;;;;4593578;19;20976;-73
2024/01/20 04:24:36;;;;;;;14.10;9.93;;;12.40;83.30;;;;;;4593272;19;20441;-73
2024/01/20 04:26:12;;;;;;;13.30;9.77;;;12.50;83.20;;;;;;4593765;19;20481;-73
2024/01/20 04:27:46;;;;;;;17.73;10.13;;;12.50;83.20;;;;;;4593655;19;20415;-73
2024/01/20 04:29:20;;;;;;;13.77;9.27;;;12.60;83.10;;;;;;4593917;19;20401;-73
2024/01/20 04:30:55;;;;;;;15.97;10.03;;;12.60;82.90;;;;;;4592690;19;20439;-73
2024/01/20 04:32:29;;;;;;;14.27;10.27;;;12.60;82.90;;;;;;4593564;19;20389;-73
2024/01/20 04:34:03;;;;;;;13.77;10.07;;;12.50;82.60;;;;;;4593501;19;20396;-73
2024/01/20 04:35:41;;;;;;;14.03;9.40;;;12.50;82.60;;;;;;4592313;19;20480;-73
2024/01/20 04:37:16;;;;;;;13.40;9.53;;;12.60;82.60;;;;;;4593793;19;20926;-73
2024/01/20 04:38:50;;;;;;;15.50;10.17;;;12.60;82.40;;;;;;4593396;19;20700;-73
2024/01/20 04:40:25;;;;;;;16.67;9.77;;;12.70;82.20;;;;;;4593490;19;20377;-73
2024/01/20 04:41:59;;;;;;;14.23;10.27;;;12.70;82.10;;;;;;4593374;19;20442;-73
2024/01/20 04:43:33;;;;;;;13.97;9.40;;;12.80;82.00;;;;;;4593363;19;20515;-73
2024/01/20 04:45:11;;;;;;;17.93;11.07;;;12.80;81.80;;;;;;4591187;19;21064;-73
2024/01/20 04:46:44;;;;;;;17.57;12.27;;;12.80;81.60;;;;;;4593297;19;20883;-74
2024/01/20 04:48:20;;;;;;;20.73;13.10;;;12.90;81.50;;;;;;4593506;19;20445;-73
2024/01/20 04:49:55;;;;;;;16.63;11.03;;;12.90;81.40;;;;;;4591896;19;20875;-73
2024/01/20 04:51:30;;;;;;;15.10;9.77;;;12.90;81.40;;;;;;4593132;19;20401;-73
2024/01/20 04:53:04;;;;;;;14.53;10.13;;;12.80;81.20;;;;;;4593187;19;20432;-73
2024/01/20 04:54:39;;;;;;;14.80;9.43;;;12.80;81.10;;;;;;4592752;19;20520;-73
2024/01/20 04:56:13;;;;;;;12.70;8.90;;;12.80;81.30;;;;;;4593124;19;20389;-73
2024/01/20 04:57:47;;;;;;;14.47;9.97;;;12.70;81.10;;;;;;4593043;19;20461;-73
2024/01/20 04:59:22;;;;;;;12.50;8.93;;;12.80;81.20;;;;;;4593201;19;20385;-73
2024/01/20 05:00:56;;;;;;;17.10;10.17;;;12.80;81.20;;;;;;4593208;19;20436;-73
2024/01/20 05:02:30;;;;;;;14.60;9.40;;;12.70;81.10;;;;;;4592959;19;20680;-73
2024/01/20 05:04:07;;;;;;;13.40;9.40;;;12.70;81.20;;;;;;4592943;19;20413;-73
2024/01/20 05:05:41;;;;;;;14.83;9.67;;;12.70;81.20;;;;;;4591745;19;20564;-73
2024/01/20 05:07:21;;;;;;;14.90;9.27;;;12.60;81.30;;;;;;4591793;19;20503;-73
2024/01/20 05:08:56;;;;;;;14.50;10.27;;;12.60;81.30;;;;;;4592800;19;20907;-73
2024/01/20 05:10:32;;;;;;;12.93;9.07;;;12.60;81.30;;;;;;4592087;19;20452;-73
2024/01/20 05:12:08;;;;;;;14.17;8.93;;;12.60;81.30;;;;;;4592844;19;20365;-73
2024/01/20 05:13:43;;;;;;;15.77;10.80;;;12.60;81.40;;;;;;4593021;19;20439;-73
2024/01/20 05:15:17;;;;;;;14.20;9.27;;;12.60;81.40;;;;;;4591974;19;20477;-73
2024/01/20 05:16:51;;;;;;;12.17;8.53;;;12.60;81.80;;;;;;4591530;19;20520;-73
2024/01/20 05:18:26;;;;;;;14.27;9.30;;;12.50;81.50;;;;;;4592387;19;20476;-74
2024/01/20 05:20:00;;;;;;;9.60;6.10;;;12.60;83.30;;;;;;4592618;19;20396;-73
2024/01/20 05:21:38;;;;;;;8.40;4.37;;;12.80;99.90;;;;;;4591360;19;20448;-73
2024/01/20 05:23:16;;;;;;;5.00;3.30;;;13.10;99.90;;;;;;4591112;19;20413;-73
2024/01/20 05:24:50;;;;;;;6.10;3.03;;;13.40;99.90;;;;;;4591548;19;20797;-73
2024/01/20 05:26:24;;;;;;;6.40;3.07;;;13.70;99.90;;;;;;4592481;19;20005;-73
2024/01/20 05:27:59;;;;;;;6.20;2.97;;;13.90;99.90;;;;;;4591481;19;20521;-73
2024/01/20 05:29:33;;;;;;;6.10;3.10;;;14.10;99.90;;;;;;4592130;19;19999;-73
2024/01/20 05:31:07;;;;;;;4.13;2.67;;;14.20;99.90;;;;;;4591223;19;19998;-73
2024/01/20 05:32:42;;;;;;;3.63;2.70;;;14.40;99.90;;;;;;4592038;19;20010;-73
2024/01/20 05:34:16;;;;;;;5.83;3.57;;;14.50;99.90;;;;;;4590854;19;19999;-73
2024/01/20 05:35:50;;;;;;;5.53;2.87;;;14.50;99.90;;;;;;4591890;19;20423;-73
2024/01/20 05:37:25;;;;;;;5.33;3.70;;;14.60;99.90;;;;;;4592584;19;19998;-73
2024/01/20 05:38:59;;;;;;;5.87;3.37;;;14.70;99.90;;;;;;4592204;19;20002;-73
2024/01/20 05:40:34;;;;;;;7.00;3.30;;;14.70;99.90;;;;;;4592162;19;19998;-73
2024/01/20 05:42:09;;;;;;;8.00;2.73;;;14.80;99.90;;;;;;4592290;19;20081;-73
2024/01/20 05:43:42;;;;;;;4.67;3.00;;;14.80;99.90;;;;;;4591933;19;20036;-73
2024/01/20 05:45:16;;;;;;;5.03;2.80;;;14.90;99.90;;;;;;4591376;19;20026;-73
2024/01/20 05:46:51;;;;;;;3.93;2.70;;;14.90;99.90;;;;;;4591919;19;20094;-73
2024/01/20 05:48:25;;;;;;;3.80;2.43;;;14.90;99.90;;;;;;4591907;19;20066;-73
2024/01/20 05:49:59;;;;;;;4.70;2.87;;;14.90;99.90;;;;;;4591467;19;19994;-73
2024/01/20 05:51:36;;;;;;;6.70;2.87;;;14.90;99.90;;;;;;4591785;19;20014;-73
2024/01/20 05:53:10;;;;;;;5.20;2.47;;;14.90;99.90;;;;;;4592060;19;20070;-73
2024/01/20 05:54:44;;;;;;;3.90;2.53;;;15.00;99.90;;;;;;4591331;19;20037;-73
2024/01/20 05:56:20;;;;;;;6.27;2.40;;;15.00;99.90;;;;;;4591818;19;20006;-73
2024/01/20 05:57:54;;;;;;;6.07;2.77;;;15.00;99.90;;;;;;4591704;19;20471;-73
2024/01/20 05:59:28;;;;;;;3.67;2.20;;;15.10;99.90;;;;;;4590566;19;20419;-73
2024/01/20 06:01:03;;;;;;;3.40;2.00;;;15.20;99.90;;;;;;4591390;19;20006;-73
2024/01/20 06:02:37;;;;;;;7.07;2.50;;;15.40;99.90;;;;;;4591646;19;20291;-73
2024/01/20 06:04:11;;;;;;;4.23;2.30;;;15.50;99.90;;;;;;4591915;19;20003;-73
2024/01/20 06:05:48;;;;;;;4.72;2.42;;;15.50;99.90;;;;;;4591689;19;20034;-73
2024/01/20 06:07:22;;;;;;;2.67;1.83;;;15.60;99.90;;;;;;4591914;19;20013;-73
2024/01/20 06:08:56;;;;;;;3.80;2.37;;;15.70;99.90;;;;;;4591590;19;19998;-73
2024/01/20 06:10:31;;;;;;;3.25;1.80;;;15.80;99.90;;;;;;4590831;19;20028;-73
2024/01/20 06:12:06;;;;;;;5.88;2.55;;;15.90;99.90;;;;;;4591468;19;20466;-73
2024/01/20 06:13:40;;;;;;;3.38;1.80;;;16.00;99.90;;;;;;4591466;19;20003;-73
2024/01/20 06:15:16;;;;;;;4.30;2.13;;;16.10;99.90;;;;;;4590198;19;20011;-73
2024/01/20 06:16:50;;;;;;;3.97;1.60;;;16.20;99.90;;;;;;4591330;19;20030;-73
2024/01/20 06:18:24;;;;;;;3.75;1.85;;;16.30;99.90;;;;;;4591655;19;20416;-73
2024/01/20 06:19:59;;;;;;;3.28;2.00;;;16.40;99.90;;;;;;4591639;19;20003;-73
2024/01/20 06:21:33;;;;;;;5.13;1.85;;;16.50;99.90;;;;;;4591225;19;20017;-73
2024/01/20 06:23:07;;;;;;;4.05;2.22;;;16.60;99.90;;;;;;4591578;19;19998;-73
2024/01/20 06:24:43;;;;;;;4.28;1.60;;;16.60;99.90;;;;;;4591119;19;20010;-73
2024/01/20 06:26:17;;;;;;;3.05;1.70;;;16.60;99.90;;;;;;4591529;19;20436;-73
2024/01/20 06:27:51;;;;;;;5.32;1.63;;;16.60;99.90;;;;;;4591220;19;20015;-73
2024/01/20 06:29:27;;;;;;;2.53;1.30;;;16.70;99.90;;;;;;4591251;19;20003;-73
2024/01/20 06:31:01;;;;;;;3.92;1.70;;;16.80;99.90;;;;;;4590148;19;19998;-73
2024/01/20 06:32:35;;;;;;;2.78;1.30;;;16.80;99.90;;;;;;4591469;19;20009;-74
2024/01/20 06:34:10;;;;;;;4.35;1.67;;;16.90;99.90;;;;;;4591124;19;20007;-74
2024/01/20 06:35:44;;;;;;;6.00;1.92;;;17.00;99.90;;;;;;4591332;19;20019;-74
2024/01/20 06:37:19;;;;;;;2.83;1.60;;;17.20;99.90;;;;;;4591373;19;20026;-73
2024/01/20 06:38:56;;;;;;;3.70;1.60;;;17.30;99.90;;;;;;4591351;19;20451;-73
2024/01/20 06:40:30;;;;;;;3.30;1.90;;;17.40;99.90;;;;;;4590973;19;20074;-73
2024/01/20 06:42:04;;;;;;;10.70;7.15;;;17.60;99.90;;;;;;4591293;19;20009;-73
2024/01/20 06:43:39;;;;;;;14.45;10.95;;;17.20;94.00;;;;;;4591374;19;20017;-73
2024/01/20 06:45:14;;;;;;;14.68;10.82;;;16.50;92.10;;;;;;4591814;19;20019;-73
2024/01/20 06:46:47;;;;;;;15.10;10.82;;;15.90;91.90;;;;;;4595796;19;20003;-73
2024/01/20 06:48:24;;;;;;;13.17;9.47;;;15.30;91.80;;;;;;4595649;19;20434;-73
2024/01/20 06:49:58;;;;;;;14.57;9.87;;;15.00;91.90;;;;;;4593789;19;20066;-73
2024/01/20 06:51:32;;;;;;;14.47;9.40;;;14.80;91.90;;;;;;4593829;19;20003;-73
2024/01/20 06:53:07;;;;;;;15.03;10.37;;;14.70;92.20;;;;;;4594477;19;20439;-73
2024/01/20 06:54:44;;;;;;;14.43;10.47;;;14.50;91.90;;;;;;4593862;19;20014;-73
2024/01/20 06:56:17;;;;;;;13.80;9.77;;;14.50;92.10;;;;;;4593877;19;20035;-74
2024/01/20 06:57:52;;;;;;;12.00;8.73;;;14.30;92.00;;;;;;4594281;19;20010;-73
2024/01/20 06:59:26;;;;;;;12.47;9.17;;;14.20;92.00;;;;;;4595198;19;20296;-73
2024/01/20 07:01:00;;;;;;;13.30;9.30;;;14.00;92.20;;;;;;4595031;19;20485;-73
2024/01/20 07:02:36;;;;;;;18.73;12.83;;;13.90;92.20;;;;;;4593537;19;20020;-73
2024/01/20 07:04:10;;;;;;;28.40;20.07;;;13.70;92.30;;;;;;4594476;19;20012;-74
2024/01/20 07:05:45;;;;;;;21.00;15.50;;;13.60;92.30;;;;;;4594981;19;20007;-76
2024/01/20 07:07:21;;;;;;;18.47;12.67;;;13.60;92.30;;;;;;4595022;19;20027;-76
2024/01/20 07:08:55;;;;;;;15.73;10.80;;;13.60;92.50;;;;;;4594836;19;20007;-75
2024/01/20 07:10:30;;;;;;;16.10;10.93;;;13.60;92.30;;;;;;4593914;19;20413;-77
2024/01/20 07:12:06;;;;;;;13.07;9.77;;;13.50;92.40;;;;;;4593106;19;20006;-80
2024/01/20 07:13:40;;;;;;;17.43;11.20;;;13.50;92.40;;;;;;4593662;19;20446;-78
2024/01/20 07:15:14;;;;;;;15.33;10.63;;;13.50;92.40;;;;;;4593156;19;20011;-79
2024/01/20 07:16:49;;;;;;;16.30;10.97;;;13.40;92.30;;;;;;4593741;19;20726;-77
2024/01/20 07:18:24;;;;;;;17.03;11.47;;;13.40;92.30;;;;;;4592976;19;20331;-77
2024/01/20 07:19:58;;;;;;;17.80;11.70;;;13.30;92.30;;;;;;4593750;19;20378;-75
2024/01/20 07:21:33;;;;;;;17.83;11.30;;;13.30;92.40;;;;;;4594894;19;20421;-79
2024/01/20 07:23:08;;;;;;;15.53;10.73;;;13.20;92.40;;;;;;4594644;19;20477;-77
2024/01/20 07:24:42;;;;;;;19.77;14.17;;;13.20;92.50;;;;;;4592799;19;20429;-78
2024/01/20 07:26:17;;;;;;;20.60;14.00;;;13.20;92.40;;;;;;4594725;19;20408;-79
2024/01/20 07:27:51;;;;;;;18.27;12.63;;;13.20;92.60;;;;;;4594713;19;20388;-78
2024/01/20 07:29:25;;;;;;;20.27;11.47;;;13.20;92.40;;;;;;4594943;19;20389;-81
2024/01/20 07:31:02;;;;;;;19.50;11.70;;;13.10;92.40;;;;;;4593426;19;20922;-75
2024/01/20 07:32:35;;;;;;;38.57;20.70;;;13.10;92.50;;;;;;4594738;19;20397;-79
2024/01/20 07:34:11;;;;;;;61.80;42.70;;;13.10;92.50;;;;;;4594421;19;20396;-78
2024/01/20 07:35:47;;;;;;;35.30;27.20;;;13.10;92.60;;;;;;4594536;19;20393;-73
2024/01/20 07:37:21;;;;;;;90.40;53.03;;;12.90;92.50;;;;;;4593104;19;20389;-75
2024/01/20 07:38:56;;;;;;;102.17;46.50;;;12.90;92.70;;;;;;4594038;19;20485;-73
2024/01/20 07:40:31;;;;;;;118.70;49.53;;;12.90;92.70;;;;;;4594652;19;20369;-73
2024/01/20 07:42:05;;;;;;;73.03;35.97;;;12.90;92.70;;;;;;4594105;19;20519;-73
2024/01/20 07:43:39;;;;;;;38.00;21.87;;;12.80;92.70;;;;;;4594001;19;20417;-73
2024/01/20 07:45:15;;;;;;;34.20;26.00;;;12.80;92.70;;;;;;4592864;19;20449;-77
2024/01/20 07:46:51;;;;;;;17.87;11.87;;;12.80;92.70;;;;;;4594310;19;20401;-74
2024/01/20 07:48:26;;;;;;;16.07;11.53;;;12.90;92.70;;;;;;4594056;19;20938;-76
2024/01/20 07:50:02;;;;;;;16.00;11.10;;;12.90;92.70;;;;;;4594156;19;20378;-73
2024/01/20 07:51:36;;;;;;;12.57;9.40;;;12.90;92.60;;;;;;4591910;19;20420;-74
2024/01/20 07:53:10;;;;;;;17.33;10.83;;;12.90;92.50;;;;;;4593735;19;20465;-73
2024/01/20 07:54:46;;;;;;;16.73;11.00;;;12.90;92.50;;;;;;4593960;19;20806;-75
2024/01/20 07:56:20;;;;;;;12.47;9.83;;;12.90;92.40;;;;;;4590475;19;20549;-78
2024/01/20 07:57:56;;;;;;;17.77;11.60;;;12.90;92.50;;;;;;4593016;19;20741;-73
2024/01/20 07:59:33;;;;;;;16.43;10.57;;;13.00;93.40;;;;;;4593642;19;20423;-73
2024/01/20 08:01:08;;;;;;;16.43;11.13;;;13.00;92.40;;;;;;4592952;19;20400;-73
2024/01/20 08:02:43;;;;;;;16.33;10.77;;;12.90;92.20;;;;;;4593498;19;20401;-73
2024/01/20 08:04:18;;;;;;;15.17;11.43;;;12.90;92.20;;;;;;4593982;19;20790;-73
2024/01/20 08:05:52;;;;;;;17.20;12.03;;;12.90;92.20;;;;;;4593971;19;20408;-73
2024/01/20 08:07:26;;;;;;;15.10;11.63;;;12.80;92.20;;;;;;4593262;19;20829;-73
2024/01/20 08:09:02;;;;;;;14.47;11.70;;;12.80;92.30;;;;;;4593819;19;20515;-73
2024/01/20 08:10:37;;;;;;;15.80;12.20;;;12.70;92.20;;;;;;4590736;19;20698;-73
2024/01/20 08:12:11;;;;;;;16.77;12.20;;;12.60;92.40;;;;;;4592620;19;20473;-73
2024/01/20 08:13:47;;;;;;;17.23;14.07;;;12.60;92.30;;;;;;4593319;19;20405;-73
2024/01/20 08:15:23;;;;;;;18.00;12.40;;;12.50;92.30;;;;;;4592229;19;20473;-73
2024/01/20 08:16:57;;;;;;;18.80;14.70;;;12.50;92.30;;;;;;4594005;19;20939;-73